sensor_id;sensor_type;location;lat;lon;timestamp;P1;durP1;ratioP1;P2;durP2;ratioP2
49458;SDS011;35354;51.296;16.924;2022-12-18T00:02:02;69.00;;;32.47;;
49458;SDS011;35354;51.296;16.924;2022-12-18T00:04:28;71.00;;;32.28;;
49458;SDS011;35354;51.296;16.924;2022-12-18T00:06:54;83.45;;;36.90;;
49458;SDS011;35354;51.296;16.924;2022-12-18T00:09:19;80.20;;;38.97;;
49458;SDS011;35354;51.296;16.924;2022-12-18T00:11:45;78.93;;;38.38;;
49458;SDS011;35354;51.296;16.924;2022-12-18T00:14:11;76.55;;;35.72;;
49458;SDS011;35354;51.296;16.924;2022-12-18T00:16:37;78.10;;;36.42;;
49458;SDS011;35354;51.296;16.924;2022-12-18T00:19:04;66.10;;;29.98;;
49458;SDS011;35354;51.296;16.924;2022-12-18T00:21:30;68.10;;;33.92;;
49458;SDS011;35354;51.296;16.924;2022-12-18T00:23:59;69.45;;;31.17;;
49458;SDS011;35354;51.296;16.924;2022-12-18T00:26:29;83.93;;;39.15;;
49458;SDS011;35354;51.296;16.924;2022-12-18T00:28:59;72.57;;;34.00;;
49458;SDS011;35354;51.296;16.924;2022-12-18T00:31:26;71.28;;;31.40;;
49458;SDS011;35354;51.296;16.924;2022-12-18T00:33:53;85.43;;;35.92;;
49458;SDS011;35354;51.296;16.924;2022-12-18T00:36:21;70.60;;;32.97;;
49458;SDS011;35354;51.296;16.924;2022-12-18T00:38:51;69.13;;;30.60;;
49458;SDS011;35354;51.296;16.924;2022-12-18T00:41:17;68.22;;;32.60;;
49458;SDS011;35354;51.296;16.924;2022-12-18T00:44:03;78.93;;;35.72;;
49458;SDS011;35354;51.296;16.924;2022-12-18T00:46:30;70.57;;;31.42;;
49458;SDS011;35354;51.296;16.924;2022-12-18T00:48:55;62.20;;;28.23;;
49458;SDS011;35354;51.296;16.924;2022-12-18T00:51:21;60.58;;;25.90;;
49458;SDS011;35354;51.296;16.924;2022-12-18T00:53:46;59.08;;;25.52;;
49458;SDS011;35354;51.296;16.924;2022-12-18T00:56:11;55.22;;;24.55;;
49458;SDS011;35354;51.296;16.924;2022-12-18T00:58:37;56.72;;;26.63;;
49458;SDS011;35354;51.296;16.924;2022-12-18T01:01:06;62.72;;;28.42;;
49458;SDS011;35354;51.296;16.924;2022-12-18T01:03:32;55.75;;;25.98;;
49458;SDS011;35354;51.296;16.924;2022-12-18T01:05:57;51.63;;;25.27;;
49458;SDS011;35354;51.296;16.924;2022-12-18T01:08:22;72.95;;;35.05;;
49458;SDS011;35354;51.296;16.924;2022-12-18T01:10:48;66.18;;;28.65;;
49458;SDS011;35354;51.296;16.924;2022-12-18T01:13:13;62.08;;;30.40;;
49458;SDS011;35354;51.296;16.924;2022-12-18T01:15:38;62.83;;;27.67;;
49458;SDS011;35354;51.296;16.924;2022-12-18T01:18:04;59.72;;;28.60;;
49458;SDS011;35354;51.296;16.924;2022-12-18T01:20:30;55.67;;;29.30;;
49458;SDS011;35354;51.296;16.924;2022-12-18T01:22:56;62.30;;;29.58;;
49458;SDS011;35354;51.296;16.924;2022-12-18T01:25:21;67.45;;;31.00;;
49458;SDS011;35354;51.296;16.924;2022-12-18T01:27:46;60.72;;;28.17;;
49458;SDS011;35354;51.296;16.924;2022-12-18T01:30:12;67.18;;;29.20;;
49458;SDS011;35354;51.296;16.924;2022-12-18T01:32:37;56.60;;;27.63;;
49458;SDS011;35354;51.296;16.924;2022-12-18T01:35:02;56.95;;;28.02;;
49458;SDS011;35354;51.296;16.924;2022-12-18T01:37:28;65.97;;;30.63;;
49458;SDS011;35354;51.296;16.924;2022-12-18T01:39:53;61.20;;;29.20;;
49458;SDS011;35354;51.296;16.924;2022-12-18T01:42:21;57.42;;;27.63;;
49458;SDS011;35354;51.296;16.924;2022-12-18T01:53:10;55.20;;;26.48;;
49458;SDS011;35354;51.296;16.924;2022-12-18T01:55:40;51.97;;;26.17;;
49458;SDS011;35354;51.296;16.924;2022-12-18T01:58:12;52.97;;;26.55;;
49458;SDS011;35354;51.296;16.924;2022-12-18T02:00:38;61.10;;;27.50;;
49458;SDS011;35354;51.296;16.924;2022-12-18T02:03:04;58.80;;;27.85;;
49458;SDS011;35354;51.296;16.924;2022-12-18T02:08:15;61.75;;;28.10;;
49458;SDS011;35354;51.296;16.924;2022-12-18T02:24:35;56.85;;;27.98;;
49458;SDS011;35354;51.296;16.924;2022-12-18T02:27:06;54.17;;;25.88;;
49458;SDS011;35354;51.296;16.924;2022-12-18T02:29:38;54.17;;;26.27;;
49458;SDS011;35354;51.296;16.924;2022-12-18T02:32:09;54.45;;;25.80;;
49458;SDS011;35354;51.296;16.924;2022-12-18T02:34:39;53.65;;;24.55;;
49458;SDS011;35354;51.296;16.924;2022-12-18T02:37:05;49.78;;;23.58;;
49458;SDS011;35354;51.296;16.924;2022-12-18T02:39:37;48.22;;;23.52;;
49458;SDS011;35354;51.296;16.924;2022-12-18T02:42:05;50.13;;;24.67;;
49458;SDS011;35354;51.296;16.924;2022-12-18T02:44:43;53.95;;;23.45;;
49458;SDS011;35354;51.296;16.924;2022-12-18T02:47:13;42.30;;;23.48;;
49458;SDS011;35354;51.296;16.924;2022-12-18T02:49:44;48.40;;;24.27;;
49458;SDS011;35354;51.296;16.924;2022-12-18T02:52:25;48.40;;;24.63;;
49458;SDS011;35354;51.296;16.924;2022-12-18T02:55:08;47.72;;;24.25;;
49458;SDS011;35354;51.296;16.924;2022-12-18T02:57:51;45.95;;;23.30;;
49458;SDS011;35354;51.296;16.924;2022-12-18T03:00:21;44.38;;;23.83;;
49458;SDS011;35354;51.296;16.924;2022-12-18T03:02:57;48.25;;;23.63;;
49458;SDS011;35354;51.296;16.924;2022-12-18T03:05:33;49.72;;;23.05;;
49458;SDS011;35354;51.296;16.924;2022-12-18T03:08:11;51.70;;;24.35;;
49458;SDS011;35354;51.296;16.924;2022-12-18T03:10:51;48.38;;;23.42;;
49458;SDS011;35354;51.296;16.924;2022-12-18T03:16:15;54.78;;;24.98;;
49458;SDS011;35354;51.296;16.924;2022-12-18T03:18:55;55.75;;;25.45;;
49458;SDS011;35354;51.296;16.924;2022-12-18T03:21:27;45.35;;;23.73;;
49458;SDS011;35354;51.296;16.924;2022-12-18T03:23:54;50.45;;;24.00;;
49458;SDS011;35354;51.296;16.924;2022-12-18T03:26:21;47.05;;;22.23;;
49458;SDS011;35354;51.296;16.924;2022-12-18T03:28:51;47.67;;;22.60;;
49458;SDS011;35354;51.296;16.924;2022-12-18T03:31:20;47.33;;;24.20;;
49458;SDS011;35354;51.296;16.924;2022-12-18T03:33:54;48.15;;;24.73;;
49458;SDS011;35354;51.296;16.924;2022-12-18T03:36:22;49.45;;;23.42;;
49458;SDS011;35354;51.296;16.924;2022-12-18T03:38:48;47.70;;;23.38;;
49458;SDS011;35354;51.296;16.924;2022-12-18T03:41:49;48.78;;;24.35;;
49458;SDS011;35354;51.296;16.924;2022-12-18T03:47:27;43.00;;;22.02;;
49458;SDS011;35354;51.296;16.924;2022-12-18T03:52:35;51.33;;;22.95;;
49458;SDS011;35354;51.296;16.924;2022-12-18T03:55:07;48.25;;;23.45;;
49458;SDS011;35354;51.296;16.924;2022-12-18T03:57:34;43.75;;;21.63;;
49458;SDS011;35354;51.296;16.924;2022-12-18T04:00:05;44.08;;;21.67;;
49458;SDS011;35354;51.296;16.924;2022-12-18T04:02:33;43.78;;;22.45;;
49458;SDS011;35354;51.296;16.924;2022-12-18T04:05:01;45.47;;;22.90;;
49458;SDS011;35354;51.296;16.924;2022-12-18T04:07:29;46.90;;;23.92;;
49458;SDS011;35354;51.296;16.924;2022-12-18T04:09:56;50.22;;;24.30;;
49458;SDS011;35354;51.296;16.924;2022-12-18T04:12:25;56.42;;;25.35;;
49458;SDS011;35354;51.296;16.924;2022-12-18T04:14:51;46.05;;;22.65;;
49458;SDS011;35354;51.296;16.924;2022-12-18T04:17:16;41.63;;;20.92;;
49458;SDS011;35354;51.296;16.924;2022-12-18T04:19:42;44.50;;;22.05;;
49458;SDS011;35354;51.296;16.924;2022-12-18T04:22:08;45.85;;;23.10;;
49458;SDS011;35354;51.296;16.924;2022-12-18T04:24:35;45.63;;;22.80;;
49458;SDS011;35354;51.296;16.924;2022-12-18T04:27:00;42.67;;;21.15;;
49458;SDS011;35354;51.296;16.924;2022-12-18T04:29:25;46.28;;;23.25;;
49458;SDS011;35354;51.296;16.924;2022-12-18T04:31:50;41.05;;;21.30;;
49458;SDS011;35354;51.296;16.924;2022-12-18T04:34:16;45.60;;;23.63;;
49458;SDS011;35354;51.296;16.924;2022-12-18T04:36:41;42.72;;;21.48;;
49458;SDS011;35354;51.296;16.924;2022-12-18T04:39:06;45.50;;;23.88;;
49458;SDS011;35354;51.296;16.924;2022-12-18T04:41:32;41.70;;;21.20;;
49458;SDS011;35354;51.296;16.924;2022-12-18T04:43:57;41.22;;;20.30;;
49458;SDS011;35354;51.296;16.924;2022-12-18T04:46:22;41.03;;;20.83;;
49458;SDS011;35354;51.296;16.924;2022-12-18T04:48:47;46.55;;;21.83;;
49458;SDS011;35354;51.296;16.924;2022-12-18T04:51:13;40.22;;;20.85;;
49458;SDS011;35354;51.296;16.924;2022-12-18T04:53:38;45.10;;;22.30;;
49458;SDS011;35354;51.296;16.924;2022-12-18T04:58:31;47.55;;;24.08;;
49458;SDS011;35354;51.296;16.924;2022-12-18T05:00:56;52.05;;;25.95;;
49458;SDS011;35354;51.296;16.924;2022-12-18T05:03:22;49.53;;;24.83;;
49458;SDS011;35354;51.296;16.924;2022-12-18T05:05:50;44.78;;;24.23;;
49458;SDS011;35354;51.296;16.924;2022-12-18T05:08:16;49.17;;;23.70;;
49458;SDS011;35354;51.296;16.924;2022-12-18T05:10:42;47.45;;;25.67;;
49458;SDS011;35354;51.296;16.924;2022-12-18T05:13:07;46.90;;;25.15;;
49458;SDS011;35354;51.296;16.924;2022-12-18T05:15:33;48.42;;;24.42;;
49458;SDS011;35354;51.296;16.924;2022-12-18T05:17:59;49.50;;;25.55;;
49458;SDS011;35354;51.296;16.924;2022-12-18T05:20:25;53.83;;;24.88;;
49458;SDS011;35354;51.296;16.924;2022-12-18T05:22:51;50.05;;;26.60;;
49458;SDS011;35354;51.296;16.924;2022-12-18T05:25:17;56.30;;;26.05;;
49458;SDS011;35354;51.296;16.924;2022-12-18T05:27:42;51.00;;;24.85;;
49458;SDS011;35354;51.296;16.924;2022-12-18T05:30:09;42.58;;;23.35;;
49458;SDS011;35354;51.296;16.924;2022-12-18T05:32:35;49.33;;;24.10;;
49458;SDS011;35354;51.296;16.924;2022-12-18T05:35:00;48.75;;;23.92;;
49458;SDS011;35354;51.296;16.924;2022-12-18T05:37:25;48.08;;;24.42;;
49458;SDS011;35354;51.296;16.924;2022-12-18T05:39:51;51.88;;;25.75;;
49458;SDS011;35354;51.296;16.924;2022-12-18T05:42:16;49.88;;;26.70;;
49458;SDS011;35354;51.296;16.924;2022-12-18T05:44:42;48.45;;;25.10;;
49458;SDS011;35354;51.296;16.924;2022-12-18T05:47:08;50.42;;;24.55;;
49458;SDS011;35354;51.296;16.924;2022-12-18T05:49:33;49.65;;;25.85;;
49458;SDS011;35354;51.296;16.924;2022-12-18T05:51:59;49.75;;;24.75;;
49458;SDS011;35354;51.296;16.924;2022-12-18T05:54:26;48.63;;;25.55;;
49458;SDS011;35354;51.296;16.924;2022-12-18T05:56:52;47.47;;;23.38;;
49458;SDS011;35354;51.296;16.924;2022-12-18T05:59:17;47.72;;;25.08;;
49458;SDS011;35354;51.296;16.924;2022-12-18T06:01:43;52.47;;;26.38;;
49458;SDS011;35354;51.296;16.924;2022-12-18T06:04:08;51.22;;;25.85;;
49458;SDS011;35354;51.296;16.924;2022-12-18T06:06:33;50.65;;;26.08;;
49458;SDS011;35354;51.296;16.924;2022-12-18T06:08:58;51.28;;;24.85;;
49458;SDS011;35354;51.296;16.924;2022-12-18T06:11:25;49.45;;;25.08;;
49458;SDS011;35354;51.296;16.924;2022-12-18T06:13:52;49.42;;;25.25;;
49458;SDS011;35354;51.296;16.924;2022-12-18T06:16:18;51.50;;;24.63;;
49458;SDS011;35354;51.296;16.924;2022-12-18T06:18:44;51.20;;;25.67;;
49458;SDS011;35354;51.296;16.924;2022-12-18T06:21:09;50.70;;;29.02;;
49458;SDS011;35354;51.296;16.924;2022-12-18T06:23:35;59.03;;;30.40;;
49458;SDS011;35354;51.296;16.924;2022-12-18T06:26:07;57.38;;;27.85;;
49458;SDS011;35354;51.296;16.924;2022-12-18T06:28:34;56.35;;;27.48;;
49458;SDS011;35354;51.296;16.924;2022-12-18T06:30:59;56.58;;;26.52;;
49458;SDS011;35354;51.296;16.924;2022-12-18T06:33:28;54.50;;;26.42;;
49458;SDS011;35354;51.296;16.924;2022-12-18T06:35:53;46.83;;;25.05;;
49458;SDS011;35354;51.296;16.924;2022-12-18T06:38:19;53.05;;;24.58;;
49458;SDS011;35354;51.296;16.924;2022-12-18T06:40:44;48.95;;;26.10;;
49458;SDS011;35354;51.296;16.924;2022-12-18T06:43:10;54.63;;;25.30;;
49458;SDS011;35354;51.296;16.924;2022-12-18T06:45:35;51.05;;;24.38;;
49458;SDS011;35354;51.296;16.924;2022-12-18T06:48:00;52.13;;;25.95;;
49458;SDS011;35354;51.296;16.924;2022-12-18T06:50:26;52.65;;;26.13;;
49458;SDS011;35354;51.296;16.924;2022-12-18T06:52:51;53.20;;;25.67;;
49458;SDS011;35354;51.296;16.924;2022-12-18T06:55:17;44.35;;;22.63;;
49458;SDS011;35354;51.296;16.924;2022-12-18T06:57:42;49.78;;;23.88;;
49458;SDS011;35354;51.296;16.924;2022-12-18T07:00:07;49.97;;;24.92;;
49458;SDS011;35354;51.296;16.924;2022-12-18T07:02:33;51.45;;;24.65;;
49458;SDS011;35354;51.296;16.924;2022-12-18T07:04:58;51.85;;;26.23;;
49458;SDS011;35354;51.296;16.924;2022-12-18T07:07:24;52.85;;;26.13;;
49458;SDS011;35354;51.296;16.924;2022-12-18T07:09:49;48.05;;;25.63;;
49458;SDS011;35354;51.296;16.924;2022-12-18T07:12:16;46.25;;;23.75;;
49458;SDS011;35354;51.296;16.924;2022-12-18T07:14:41;44.88;;;23.25;;
49458;SDS011;35354;51.296;16.924;2022-12-18T07:17:06;44.03;;;22.92;;
49458;SDS011;35354;51.296;16.924;2022-12-18T07:19:32;44.45;;;23.08;;
49458;SDS011;35354;51.296;16.924;2022-12-18T07:21:58;45.42;;;24.15;;
49458;SDS011;35354;51.296;16.924;2022-12-18T07:24:23;51.05;;;24.85;;
49458;SDS011;35354;51.296;16.924;2022-12-18T07:26:48;45.47;;;23.48;;
49458;SDS011;35354;51.296;16.924;2022-12-18T07:29:13;51.70;;;24.65;;
49458;SDS011;35354;51.296;16.924;2022-12-18T07:31:39;48.28;;;24.67;;
49458;SDS011;35354;51.296;16.924;2022-12-18T07:34:04;49.75;;;24.85;;
49458;SDS011;35354;51.296;16.924;2022-12-18T07:36:29;43.13;;;22.83;;
49458;SDS011;35354;51.296;16.924;2022-12-18T07:38:55;46.85;;;24.20;;
49458;SDS011;35354;51.296;16.924;2022-12-18T07:41:21;49.42;;;26.48;;
49458;SDS011;35354;51.296;16.924;2022-12-18T07:43:46;43.88;;;24.05;;
49458;SDS011;35354;51.296;16.924;2022-12-18T07:46:12;53.28;;;26.60;;
49458;SDS011;35354;51.296;16.924;2022-12-18T07:48:39;43.05;;;23.35;;
49458;SDS011;35354;51.296;16.924;2022-12-18T07:51:06;50.90;;;26.35;;
49458;SDS011;35354;51.296;16.924;2022-12-18T07:53:32;53.85;;;25.55;;
49458;SDS011;35354;51.296;16.924;2022-12-18T07:55:58;50.83;;;26.13;;
49458;SDS011;35354;51.296;16.924;2022-12-18T07:58:25;48.63;;;24.25;;
49458;SDS011;35354;51.296;16.924;2022-12-18T08:00:51;55.35;;;28.60;;
49458;SDS011;35354;51.296;16.924;2022-12-18T08:03:17;54.47;;;28.83;;
49458;SDS011;35354;51.296;16.924;2022-12-18T08:05:42;53.85;;;27.75;;
49458;SDS011;35354;51.296;16.924;2022-12-18T08:08:07;55.45;;;27.88;;
49458;SDS011;35354;51.296;16.924;2022-12-18T08:10:33;64.38;;;34.47;;
49458;SDS011;35354;51.296;16.924;2022-12-18T08:12:58;60.78;;;32.45;;
49458;SDS011;35354;51.296;16.924;2022-12-18T08:15:23;59.15;;;32.53;;
49458;SDS011;35354;51.296;16.924;2022-12-18T08:17:48;61.67;;;32.33;;
49458;SDS011;35354;51.296;16.924;2022-12-18T08:20:14;64.53;;;34.55;;
49458;SDS011;35354;51.296;16.924;2022-12-18T08:22:40;73.75;;;36.15;;
49458;SDS011;35354;51.296;16.924;2022-12-18T08:25:06;78.10;;;39.75;;
49458;SDS011;35354;51.296;16.924;2022-12-18T08:27:32;70.00;;;34.85;;
49458;SDS011;35354;51.296;16.924;2022-12-18T08:29:57;73.80;;;35.35;;
49458;SDS011;35354;51.296;16.924;2022-12-18T08:32:23;68.93;;;34.40;;
49458;SDS011;35354;51.296;16.924;2022-12-18T08:34:50;77.75;;;43.08;;
49458;SDS011;35354;51.296;16.924;2022-12-18T08:37:15;73.15;;;42.40;;
49458;SDS011;35354;51.296;16.924;2022-12-18T08:39:40;75.40;;;40.60;;
49458;SDS011;35354;51.296;16.924;2022-12-18T08:42:05;79.32;;;39.25;;
49458;SDS011;35354;51.296;16.924;2022-12-18T08:44:49;71.43;;;37.08;;
49458;SDS011;35354;51.296;16.924;2022-12-18T08:47:15;72.45;;;37.75;;
49458;SDS011;35354;51.296;16.924;2022-12-18T08:49:40;88.80;;;44.13;;
49458;SDS011;35354;51.296;16.924;2022-12-18T08:52:05;74.22;;;39.10;;
49458;SDS011;35354;51.296;16.924;2022-12-18T08:54:31;101.30;;;48.95;;
49458;SDS011;35354;51.296;16.924;2022-12-18T08:56:56;76.28;;;40.35;;
49458;SDS011;35354;51.296;16.924;2022-12-18T08:59:22;69.32;;;35.92;;
49458;SDS011;35354;51.296;16.924;2022-12-18T09:01:48;74.55;;;38.42;;
49458;SDS011;35354;51.296;16.924;2022-12-18T09:04:13;66.65;;;36.42;;
49458;SDS011;35354;51.296;16.924;2022-12-18T09:06:39;68.32;;;37.75;;
49458;SDS011;35354;51.296;16.924;2022-12-18T09:09:04;67.97;;;37.28;;
49458;SDS011;35354;51.296;16.924;2022-12-18T09:11:30;72.68;;;39.05;;
49458;SDS011;35354;51.296;16.924;2022-12-18T09:13:57;71.75;;;40.70;;
49458;SDS011;35354;51.296;16.924;2022-12-18T09:16:23;76.95;;;38.42;;
49458;SDS011;35354;51.296;16.924;2022-12-18T09:18:49;74.82;;;38.38;;
49458;SDS011;35354;51.296;16.924;2022-12-18T09:21:16;77.60;;;41.75;;
49458;SDS011;35354;51.296;16.924;2022-12-18T09:23:52;70.07;;;38.13;;
49458;SDS011;35354;51.296;16.924;2022-12-18T09:26:19;84.50;;;44.40;;
49458;SDS011;35354;51.296;16.924;2022-12-18T09:28:49;101.95;;;63.17;;
49458;SDS011;35354;51.296;16.924;2022-12-18T09:31:15;101.78;;;60.78;;
49458;SDS011;35354;51.296;16.924;2022-12-18T09:33:42;75.22;;;40.65;;
49458;SDS011;35354;51.296;16.924;2022-12-18T09:36:08;80.70;;;41.65;;
49458;SDS011;35354;51.296;16.924;2022-12-18T09:38:35;68.43;;;38.25;;
49458;SDS011;35354;51.296;16.924;2022-12-18T09:41:03;84.90;;;41.50;;
49458;SDS011;35354;51.296;16.924;2022-12-18T09:43:41;71.50;;;38.42;;
49458;SDS011;35354;51.296;16.924;2022-12-18T09:46:11;67.43;;;34.95;;
49458;SDS011;35354;51.296;16.924;2022-12-18T09:48:43;69.45;;;40.30;;
49458;SDS011;35354;51.296;16.924;2022-12-18T09:51:16;78.60;;;42.63;;
49458;SDS011;35354;51.296;16.924;2022-12-18T09:53:47;74.53;;;38.92;;
49458;SDS011;35354;51.296;16.924;2022-12-18T09:56:18;72.90;;;40.65;;
49458;SDS011;35354;51.296;16.924;2022-12-18T09:59:00;66.00;;;38.50;;
49458;SDS011;35354;51.296;16.924;2022-12-18T10:01:27;73.10;;;40.67;;
49458;SDS011;35354;51.296;16.924;2022-12-18T10:03:54;61.63;;;33.30;;
49458;SDS011;35354;51.296;16.924;2022-12-18T10:06:21;64.63;;;34.05;;
49458;SDS011;35354;51.296;16.924;2022-12-18T10:09:00;61.42;;;31.67;;
49458;SDS011;35354;51.296;16.924;2022-12-18T10:14:41;68.30;;;36.33;;
49458;SDS011;35354;51.296;16.924;2022-12-18T10:22:53;67.47;;;35.17;;
49458;SDS011;35354;51.296;16.924;2022-12-18T10:25:22;65.65;;;30.98;;
49458;SDS011;35354;51.296;16.924;2022-12-18T10:28:10;48.25;;;26.48;;
49458;SDS011;35354;51.296;16.924;2022-12-18T10:30:38;77.95;;;40.83;;
49458;SDS011;35354;51.296;16.924;2022-12-18T10:33:05;76.45;;;38.83;;
49458;SDS011;35354;51.296;16.924;2022-12-18T10:35:30;78.18;;;40.55;;
49458;SDS011;35354;51.296;16.924;2022-12-18T10:40:48;71.30;;;37.15;;
49458;SDS011;35354;51.296;16.924;2022-12-18T10:43:15;78.03;;;42.75;;
49458;SDS011;35354;51.296;16.924;2022-12-18T10:45:57;62.63;;;35.28;;
49458;SDS011;35354;51.296;16.924;2022-12-18T10:51:15;68.43;;;37.00;;
49458;SDS011;35354;51.296;16.924;2022-12-18T10:54:04;59.35;;;31.00;;
49458;SDS011;35354;51.296;16.924;2022-12-18T10:56:37;62.33;;;31.88;;
49458;SDS011;35354;51.296;16.924;2022-12-18T10:59:06;73.15;;;35.58;;
49458;SDS011;35354;51.296;16.924;2022-12-18T11:04:18;62.63;;;32.33;;
49458;SDS011;35354;51.296;16.924;2022-12-18T11:06:55;56.50;;;29.95;;
49458;SDS011;35354;51.296;16.924;2022-12-18T11:12:03;55.03;;;30.48;;
49458;SDS011;35354;51.296;16.924;2022-12-18T11:14:43;58.30;;;32.47;;
49458;SDS011;35354;51.296;16.924;2022-12-18T11:19:59;69.88;;;40.90;;
49458;SDS011;35354;51.296;16.924;2022-12-18T11:22:27;67.40;;;39.33;;
49458;SDS011;35354;51.296;16.924;2022-12-18T11:24:58;63.92;;;33.63;;
49458;SDS011;35354;51.296;16.924;2022-12-18T11:27:30;82.60;;;40.72;;
49458;SDS011;35354;51.296;16.924;2022-12-18T11:30:09;66.20;;;35.03;;
49458;SDS011;35354;51.296;16.924;2022-12-18T11:32:46;73.93;;;38.05;;
49458;SDS011;35354;51.296;16.924;2022-12-18T11:35:20;76.72;;;43.90;;
49458;SDS011;35354;51.296;16.924;2022-12-18T11:38:09;73.30;;;39.60;;
49458;SDS011;35354;51.296;16.924;2022-12-18T11:40:43;84.55;;;42.97;;
49458;SDS011;35354;51.296;16.924;2022-12-18T11:46:04;72.38;;;35.40;;
49458;SDS011;35354;51.296;16.924;2022-12-18T11:48:32;74.75;;;39.40;;
49458;SDS011;35354;51.296;16.924;2022-12-18T11:51:03;66.07;;;34.70;;
49458;SDS011;35354;51.296;16.924;2022-12-18T11:53:33;76.65;;;42.20;;
49458;SDS011;35354;51.296;16.924;2022-12-18T12:06:23;67.82;;;36.58;;
49458;SDS011;35354;51.296;16.924;2022-12-18T12:14:29;75.57;;;38.55;;
49458;SDS011;35354;51.296;16.924;2022-12-18T12:17:13;76.78;;;40.33;;
49458;SDS011;35354;51.296;16.924;2022-12-18T12:19:55;82.25;;;41.42;;
49458;SDS011;35354;51.296;16.924;2022-12-18T12:22:36;69.47;;;39.33;;
49458;SDS011;35354;51.296;16.924;2022-12-18T12:30:18;85.82;;;43.22;;
49458;SDS011;35354;51.296;16.924;2022-12-18T12:35:44;73.85;;;38.22;;
49458;SDS011;35354;51.296;16.924;2022-12-18T12:38:19;76.28;;;38.55;;
49458;SDS011;35354;51.296;16.924;2022-12-18T12:40:52;80.38;;;40.58;;
49458;SDS011;35354;51.296;16.924;2022-12-18T12:43:38;80.10;;;40.15;;
49458;SDS011;35354;51.296;16.924;2022-12-18T12:46:10;70.80;;;38.15;;
49458;SDS011;35354;51.296;16.924;2022-12-18T12:51:30;79.15;;;39.30;;
49458;SDS011;35354;51.296;16.924;2022-12-18T12:53:59;91.22;;;48.45;;
49458;SDS011;35354;51.296;16.924;2022-12-18T12:59:26;88.00;;;42.95;;
49458;SDS011;35354;51.296;16.924;2022-12-18T13:02:05;92.70;;;47.83;;
49458;SDS011;35354;51.296;16.924;2022-12-18T13:04:36;105.30;;;47.78;;
49458;SDS011;35354;51.296;16.924;2022-12-18T13:07:20;100.43;;;47.67;;
49458;SDS011;35354;51.296;16.924;2022-12-18T13:12:35;79.63;;;40.83;;
49458;SDS011;35354;51.296;16.924;2022-12-18T13:15:20;92.47;;;45.67;;
49458;SDS011;35354;51.296;16.924;2022-12-18T13:20:34;95.75;;;44.72;;
49458;SDS011;35354;51.296;16.924;2022-12-18T13:23:00;94.13;;;48.53;;
49458;SDS011;35354;51.296;16.924;2022-12-18T13:25:29;90.38;;;47.53;;
49458;SDS011;35354;51.296;16.924;2022-12-18T13:28:06;86.35;;;45.20;;
49458;SDS011;35354;51.296;16.924;2022-12-18T13:35:39;99.05;;;49.67;;
49458;SDS011;35354;51.296;16.924;2022-12-18T13:40:58;90.47;;;46.15;;
49458;SDS011;35354;51.296;16.924;2022-12-18T13:43:39;88.40;;;45.97;;
49458;SDS011;35354;51.296;16.924;2022-12-18T13:46:27;88.43;;;44.90;;
49458;SDS011;35354;51.296;16.924;2022-12-18T13:51:39;101.95;;;50.72;;
49458;SDS011;35354;51.296;16.924;2022-12-18T13:54:13;90.93;;;45.65;;
49458;SDS011;35354;51.296;16.924;2022-12-18T13:56:45;92.75;;;43.45;;
49458;SDS011;35354;51.296;16.924;2022-12-18T13:59:23;94.28;;;45.17;;
49458;SDS011;35354;51.296;16.924;2022-12-18T14:01:57;102.82;;;48.00;;
49458;SDS011;35354;51.296;16.924;2022-12-18T14:04:28;97.45;;;45.65;;
49458;SDS011;35354;51.296;16.924;2022-12-18T14:09:41;90.22;;;43.45;;
49458;SDS011;35354;51.296;16.924;2022-12-18T14:12:18;88.18;;;43.67;;
49458;SDS011;35354;51.296;16.924;2022-12-18T14:15:06;146.88;;;74.13;;
49458;SDS011;35354;51.296;16.924;2022-12-18T14:17:46;148.07;;;69.82;;
49458;SDS011;35354;51.296;16.924;2022-12-18T14:20:14;192.95;;;97.10;;
49458;SDS011;35354;51.296;16.924;2022-12-18T14:22:45;91.97;;;50.28;;
49458;SDS011;35354;51.296;16.924;2022-12-18T14:27:38;102.03;;;53.10;;
49458;SDS011;35354;51.296;16.924;2022-12-18T14:33:08;129.18;;;62.70;;
49458;SDS011;35354;51.296;16.924;2022-12-18T14:35:40;93.43;;;50.17;;
49458;SDS011;35354;51.296;16.924;2022-12-18T14:38:30;80.85;;;39.92;;
49458;SDS011;35354;51.296;16.924;2022-12-18T14:40:59;98.15;;;46.97;;
49458;SDS011;35354;51.296;16.924;2022-12-18T14:43:46;119.88;;;60.35;;
49458;SDS011;35354;51.296;16.924;2022-12-18T14:46:25;99.45;;;48.42;;
49458;SDS011;35354;51.296;16.924;2022-12-18T14:53:53;145.93;;;72.17;;
49458;SDS011;35354;51.296;16.924;2022-12-18T14:58:56;104.85;;;53.38;;
49458;SDS011;35354;51.296;16.924;2022-12-18T15:01:25;112.63;;;59.45;;
49458;SDS011;35354;51.296;16.924;2022-12-18T15:04:02;99.15;;;51.25;;
49458;SDS011;35354;51.296;16.924;2022-12-18T15:08:55;97.80;;;50.75;;
49458;SDS011;35354;51.296;16.924;2022-12-18T15:11:34;103.05;;;50.05;;
49458;SDS011;35354;51.296;16.924;2022-12-18T15:17:14;84.90;;;45.70;;
49458;SDS011;35354;51.296;16.924;2022-12-18T15:19:43;105.05;;;48.53;;
49458;SDS011;35354;51.296;16.924;2022-12-18T15:22:16;342.70;;;104.20;;
49458;SDS011;35354;51.296;16.924;2022-12-18T15:24:44;97.00;;;46.00;;
49458;SDS011;35354;51.296;16.924;2022-12-18T15:27:22;169.77;;;69.65;;
49458;SDS011;35354;51.296;16.924;2022-12-18T15:30:26;111.43;;;51.17;;
49458;SDS011;35354;51.296;16.924;2022-12-18T15:32:46;109.55;;;49.85;;
49458;SDS011;35354;51.296;16.924;2022-12-18T15:37:44;102.53;;;45.85;;
49458;SDS011;35354;51.296;16.924;2022-12-18T15:40:16;112.45;;;56.03;;
49458;SDS011;35354;51.296;16.924;2022-12-18T15:42:46;121.65;;;58.67;;
49458;SDS011;35354;51.296;16.924;2022-12-18T15:45:31;128.65;;;57.97;;
49458;SDS011;35354;51.296;16.924;2022-12-18T15:47:56;126.75;;;62.60;;
49458;SDS011;35354;51.296;16.924;2022-12-18T15:50:21;127.35;;;64.47;;
49458;SDS011;35354;51.296;16.924;2022-12-18T15:52:48;151.38;;;74.45;;
49458;SDS011;35354;51.296;16.924;2022-12-18T15:55:17;169.48;;;81.75;;
49458;SDS011;35354;51.296;16.924;2022-12-18T15:58:03;139.05;;;64.57;;
49458;SDS011;35354;51.296;16.924;2022-12-18T16:00:29;131.77;;;59.15;;
49458;SDS011;35354;51.296;16.924;2022-12-18T16:02:55;164.30;;;73.95;;
49458;SDS011;35354;51.296;16.924;2022-12-18T16:05:24;158.70;;;70.53;;
49458;SDS011;35354;51.296;16.924;2022-12-18T16:07:50;134.40;;;65.43;;
49458;SDS011;35354;51.296;16.924;2022-12-18T16:10:16;135.95;;;65.25;;
49458;SDS011;35354;51.296;16.924;2022-12-18T16:12:41;158.85;;;74.82;;
49458;SDS011;35354;51.296;16.924;2022-12-18T16:15:07;138.13;;;66.03;;
49458;SDS011;35354;51.296;16.924;2022-12-18T16:17:35;191.07;;;80.93;;
49458;SDS011;35354;51.296;16.924;2022-12-18T16:20:00;285.42;;;126.55;;
49458;SDS011;35354;51.296;16.924;2022-12-18T16:22:27;232.55;;;105.50;;
49458;SDS011;35354;51.296;16.924;2022-12-18T16:24:54;209.18;;;91.13;;
49458;SDS011;35354;51.296;16.924;2022-12-18T16:27:21;190.00;;;83.47;;
49458;SDS011;35354;51.296;16.924;2022-12-18T16:29:47;213.50;;;86.97;;